This is the latest recevied weather packets stored in our database for station/object KQ4JKJ. If no packets are shown the sender has not sent any weather packets the latest 10 day(s).
| Time | Temp. | Humidity | Pressure | Rain* | Wind** | Luminosity | Snow |
|---|---|---|---|---|---|---|---|
| 1777993291 | 27.22° C | 62% | 1010.9 hPa | 0 mm | - | 642 W/m² | - |
| 1777992986 | 27.22° C | 60% | 1010.9 hPa | 0 mm | - | 637 W/m² | - |
| 1777992685 | 27.22° C | 62% | 1010.8 hPa | 0 mm | - | 638 W/m² | - |
| 1777992383 | 27.78° C | 60% | 1010.9 hPa | 0 mm | - | 572 W/m² | - |
| 1777992080 | 27.22° C | 60% | 1010.8 hPa | 0 mm | - | 591 W/m² | - |
| 1777991778 | 27.22° C | 63% | 1010.9 hPa | 0 mm | - | 586 W/m² | - |
| 1777991475 | 27.22° C | 63% | 1010.8 hPa | 0 mm | - | 570 W/m² | - |
| 1777991172 | 27.22° C | 63% | 1010.6 hPa | 0 mm | - | 556 W/m² | - |
| 1777990869 | 26.67° C | 65% | 1010.6 hPa | 0 mm | - | 560 W/m² | - |
| 1777990567 | 27.22° C | 62% | 1010.7 hPa | 0 mm | - | 158 W/m² | - |
| 1777989960 | 26.67° C | 66% | 1010.9 hPa | 0 mm | - | 535 W/m² | - |
| 1777989656 | 27.22° C | 61% | 1010.8 hPa | 0 mm | - | 110 W/m² | - |
| 1777989353 | 26.67° C | 63% | 1010.9 hPa | 0 mm | - | 444 W/m² | - |
| 1777989049 | 26.67° C | 63% | 1011 hPa | 0 mm | - | 465 W/m² | - |
| 1777988745 | 26.67° C | 66% | 1010.9 hPa | 0 mm | - | 486 W/m² | - |
| 1777988443 | 26.67° C | 66% | 1010.7 hPa | 0 mm | - | 161 W/m² | - |
| 1777988139 | 26.67° C | 66% | 1010.8 hPa | 0 mm | - | 345 W/m² | - |
| 1777987835 | 26.67° C | 69% | 1010.7 hPa | 0 mm | - | 339 W/m² | - |
| 1777987532 | 26.11° C | 70% | 1010.6 hPa | 0 mm | - | 383 W/m² | - |
| 1777987230 | 25.56° C | 71% | 1010.7 hPa | 0 mm | - | 356 W/m² | - |
| 1777986926 | 25.56° C | 73% | 1010.6 hPa | 0 mm | - | 360 W/m² | - |
| 1777986624 | 25.56° C | 71% | 1010.2 hPa | 0 mm | - | 340 W/m² | - |
| 1777986322 | 25.56° C | 72% | 1010.5 hPa | 0 mm | - | 313 W/m² | - |
| 1777986020 | 25.56° C | 71% | 1010.4 hPa | 0 mm | - | 217 W/m² | - |
| 1777985716 | 25.56° C | 72% | 1010.5 hPa | 0 mm | - | 292 W/m² | - |
* Rain latest hour (hover to see other rain measurements)
** Current wind speed in m/s (hover to see current wind gust speed)